createdAt,value
2016-03-16T00:00:00.994Z,2.88
2016-03-16T00:01:00.965Z,2.88
2016-03-16T00:02:00.937Z,2.79
2016-03-16T00:03:00.893Z,2.87
2016-03-16T00:04:00.880Z,2.85
2016-03-16T00:05:00.820Z,2.79
2016-03-16T00:06:00.791Z,2.74
2016-03-16T00:07:00.763Z,2.71
2016-03-16T00:08:00.718Z,2.71
2016-03-16T00:09:00.690Z,2.66
2016-03-16T00:10:00.661Z,2.66
2016-03-16T00:11:00.617Z,2.61
2016-03-16T00:12:00.589Z,2.58
2016-03-16T00:13:00.544Z,2.52
2016-03-16T00:14:00.516Z,2.46
2016-03-16T00:15:00.519Z,2.46
2016-03-16T00:16:00.444Z,2.46
2016-03-16T00:17:00.430Z,2.49
2016-03-16T00:18:00.386Z,2.45
2016-03-16T00:19:00.357Z,2.59
2016-03-16T00:20:00.304Z,2.41
2016-03-16T00:21:00.248Z,2.45
2016-03-16T00:22:00.223Z,2.4
2016-03-16T00:23:00.198Z,2.49
2016-03-16T00:24:00.142Z,2.52
2016-03-16T00:25:00.092Z,2.53
2016-03-16T00:26:00.044Z,2.45
2016-03-16T00:27:00.027Z,2.49
2016-03-16T00:27:59.962Z,2.45
2016-03-16T00:28:59.930Z,2.45
2016-03-16T00:29:59.883Z,2.44
2016-03-16T00:30:59.873Z,2.28
2016-03-16T00:31:59.827Z,2.27
2016-03-16T00:32:59.782Z,2.33
2016-03-16T00:33:59.782Z,2.33
2016-03-16T00:34:59.707Z,2.31
2016-03-16T00:35:59.709Z,2.34
2016-03-16T00:36:59.649Z,2.31
2016-03-16T00:37:59.620Z,2.2
2016-03-16T00:38:59.575Z,2.34
2016-03-16T00:39:59.546Z,2.2
2016-03-16T00:40:59.502Z,2.26
2016-03-16T00:41:59.488Z,2.22
2016-03-16T00:42:59.459Z,2.28
2016-03-16T00:43:59.415Z,2.26
2016-03-16T00:44:59.370Z,2.23
2016-03-16T00:45:59.342Z,2.22
2016-03-16T00:46:59.297Z,2.19
2016-03-16T00:47:59.269Z,2.26
2016-03-16T00:48:59.241Z,2.16
2016-03-16T00:49:59.197Z,2.15
2016-03-16T00:50:59.168Z,2.17
2016-03-16T00:51:59.124Z,2.13
2016-03-16T00:52:59.111Z,2.15
2016-03-16T00:53:59.066Z,2.17
2016-03-16T00:54:59.022Z,2.12
2016-03-16T00:55:58.994Z,2.09
2016-03-16T00:56:58.965Z,2.12
2016-03-16T00:57:58.968Z,2.13
2016-03-16T00:58:58.909Z,2.04
2016-03-16T00:59:58.880Z,1.99
2016-03-16T01:00:58.836Z,2.04
2016-03-16T01:01:58.791Z,2.04
2016-03-16T01:02:58.763Z,2.02
2016-03-16T01:03:58.735Z,2.01
2016-03-16T01:04:58.691Z,1.99
2016-03-16T01:05:58.662Z,2.02
2016-03-16T01:06:58.618Z,2.01
2016-03-16T01:07:58.592Z,2.06
2016-03-16T01:08:58.549Z,1.99
2016-03-16T01:09:58.535Z,1.94
2016-03-16T01:10:58.474Z,1.93
2016-03-16T01:11:58.446Z,1.93
2016-03-16T01:12:58.402Z,1.94
2016-03-16T01:13:58.362Z,1.9
2016-03-16T01:14:58.350Z,1.94
2016-03-16T01:15:58.306Z,1.94
2016-03-16T01:16:58.292Z,1.89
2016-03-16T01:17:58.234Z,1.87
2016-03-16T01:18:58.204Z,1.8
2016-03-16T01:19:58.161Z,1.79
2016-03-16T01:20:58.147Z,1.82
2016-03-16T01:21:58.104Z,1.79
2016-03-16T01:22:58.075Z,1.82
2016-03-16T01:23:58.047Z,1.82
2016-03-16T01:24:57.987Z,1.9
2016-03-16T01:25:58.036Z,1.93
2016-03-16T01:26:57.930Z,1.9
2016-03-16T01:27:57.917Z,1.97
2016-03-16T01:28:57.856Z,1.93
2016-03-16T01:29:57.828Z,2.08
2016-03-16T01:30:57.799Z,2.02
2016-03-16T01:31:57.755Z,2.1
2016-03-16T01:32:57.742Z,2.1
2016-03-16T01:33:57.714Z,2.12
2016-03-16T01:34:57.669Z,2.09
2016-03-16T01:35:57.625Z,2.19
2016-03-16T01:36:57.597Z,2.17
2016-03-16T01:37:57.553Z,2.26
2016-03-16T01:38:57.508Z,2.22
2016-03-16T01:39:57.480Z,2.28
2016-03-16T01:40:57.436Z,2.31
2016-03-16T01:41:57.407Z,2.33
2016-03-16T01:42:57.379Z,2.45
2016-03-16T01:43:57.334Z,2.48
2016-03-16T01:44:57.306Z,2.41
2016-03-16T01:45:57.277Z,2.45
2016-03-16T01:46:57.233Z,2.55
2016-03-16T01:47:57.204Z,2.45
2016-03-16T01:48:57.176Z,2.45
2016-03-16T01:49:57.148Z,2.46
2016-03-16T01:50:57.103Z,2.38
2016-03-16T01:51:57.075Z,2.45
2016-03-16T01:52:57.046Z,2.52
2016-03-16T01:53:57.003Z,2.53
2016-03-16T01:54:56.958Z,2.58
2016-03-16T01:55:56.929Z,2.61
2016-03-16T01:56:56.901Z,2.59
2016-03-16T01:57:56.857Z,2.59
2016-03-16T01:58:56.828Z,2.61
2016-03-16T01:59:56.800Z,2.61
2016-03-16T02:00:56.756Z,2.67
2016-03-16T02:01:56.727Z,2.69
2016-03-16T02:02:56.714Z,2.69
2016-03-16T02:03:56.686Z,2.73
2016-03-16T02:04:56.625Z,2.74
2016-03-16T02:05:56.581Z,2.77
2016-03-16T02:06:56.552Z,2.76
2016-03-16T02:07:56.523Z,2.76
2016-03-16T02:08:56.495Z,2.74
2016-03-16T02:09:56.482Z,2.79
2016-03-16T02:10:56.422Z,2.79
2016-03-16T02:11:56.409Z,2.79
2016-03-16T02:12:56.350Z,2.73
2016-03-16T02:13:56.337Z,2.85
2016-03-16T02:14:56.292Z,2.88
2016-03-16T02:15:56.263Z,2.85
2016-03-16T02:16:56.236Z,2.74
2016-03-16T02:17:56.191Z,2.84
2016-03-16T02:18:56.178Z,2.84
2016-03-16T02:19:56.118Z,2.82
2016-03-16T02:20:56.091Z,2.85
2016-03-16T02:21:56.046Z,2.82
2016-03-16T02:22:56.018Z,2.88
2016-03-16T02:23:55.989Z,2.92
2016-03-16T02:24:55.945Z,2.89
2016-03-16T02:25:55.917Z,2.84
2016-03-16T02:26:55.872Z,2.73
2016-03-16T02:27:55.844Z,2.82
2016-03-16T02:28:55.799Z,2.94
2016-03-16T02:29:55.771Z,2.84
2016-03-16T02:30:55.758Z,2.92
2016-03-16T02:31:55.714Z,2.84
2016-03-16T02:32:55.686Z,2.89
2016-03-16T02:33:55.641Z,2.84
2016-03-16T02:34:55.613Z,2.84
2016-03-16T02:35:55.584Z,2.88
2016-03-16T02:36:55.540Z,2.84
2016-03-16T02:37:55.527Z,2.89
2016-03-16T02:38:55.467Z,2.92
2016-03-16T02:39:55.454Z,2.94
2016-03-16T02:40:55.410Z,2.91
2016-03-16T02:41:55.382Z,2.97
2016-03-16T02:42:55.338Z,2.89
2016-03-16T02:43:55.308Z,2.88
2016-03-16T02:44:55.296Z,2.81
2016-03-16T02:45:55.251Z,2.91
2016-03-16T02:46:55.238Z,2.89
2016-03-16T02:47:55.162Z,2.89
2016-03-16T02:48:55.135Z,2.88
2016-03-16T02:49:55.106Z,2.87
2016-03-16T02:50:55.077Z,2.89
2016-03-16T02:51:55.033Z,2.89
2016-03-16T02:52:55.004Z,2.92
2016-03-16T02:53:54.960Z,2.85
2016-03-16T02:54:54.932Z,2.94
2016-03-16T02:55:54.888Z,2.95
2016-03-16T02:56:54.859Z,2.84
2016-03-16T02:57:54.846Z,2.87
2016-03-16T02:58:54.802Z,2.89
2016-03-16T02:59:54.773Z,2.91
2016-03-16T03:00:54.729Z,2.91
2016-03-16T03:01:54.732Z,2.87
2016-03-16T03:02:54.656Z,2.89
2016-03-16T03:03:54.643Z,2.94
2016-03-16T03:04:54.599Z,2.94
2016-03-16T03:05:54.555Z,2.89
2016-03-16T03:06:54.558Z,2.94
2016-03-16T03:07:54.482Z,2.84
2016-03-16T03:08:54.469Z,2.84
2016-03-16T03:09:54.425Z,2.92
2016-03-16T03:10:54.413Z,2.91
2016-03-16T03:11:54.352Z,2.92
2016-03-16T03:12:54.324Z,2.88
2016-03-16T03:13:54.296Z,2.88
2016-03-16T03:14:54.267Z,2.85
2016-03-16T03:15:54.223Z,2.97
2016-03-16T03:16:54.193Z,3.06
2016-03-16T03:17:54.010Z,2.94
2016-03-16T03:18:54.121Z,2.98
2016-03-16T03:19:54.093Z,2.97
2016-03-16T03:20:54.065Z,2.97
2016-03-16T03:21:54.020Z,2.98
2016-03-16T03:22:53.992Z,2.97
2016-03-16T03:23:53.979Z,2.92
2016-03-16T03:24:53.918Z,3
2016-03-16T03:25:53.921Z,2.95
2016-03-16T03:26:53.862Z,2.95
2016-03-16T03:27:53.833Z,3.02
2016-03-16T03:28:53.789Z,2.92
2016-03-16T03:29:53.745Z,2.95
2016-03-16T03:30:53.717Z,3.02
2016-03-16T03:31:53.687Z,3.06
2016-03-16T03:32:53.659Z,3.02
2016-03-16T03:33:53.631Z,3.12
2016-03-16T03:34:53.603Z,3.07
2016-03-16T03:35:53.558Z,3.1
2016-03-16T03:36:53.513Z,3.1
2016-03-16T03:37:53.486Z,3.12
2016-03-16T03:38:53.441Z,3.15
2016-03-16T03:39:53.412Z,3.13
2016-03-16T03:40:53.383Z,3.1
2016-03-16T03:41:53.339Z,3.21
2016-03-16T03:42:53.311Z,3.2
2016-03-16T03:43:53.282Z,3.18
2016-03-16T03:44:53.269Z,3.18
2016-03-16T03:45:53.225Z,3.21
2016-03-16T03:46:53.182Z,3.27
2016-03-16T03:47:53.152Z,3.3
2016-03-16T03:48:53.108Z,3.28
2016-03-16T03:49:53.080Z,3.36
2016-03-16T03:50:53.035Z,3.3
2016-03-16T03:51:53.007Z,3.34
2016-03-16T03:52:52.978Z,3.31
2016-03-16T03:53:52.934Z,3.28
2016-03-16T03:54:52.905Z,3.4
2016-03-16T03:55:52.876Z,3.3
2016-03-16T03:56:52.833Z,3.31
2016-03-16T03:57:52.820Z,3.43
2016-03-16T03:58:52.760Z,3.42
2016-03-16T03:59:52.731Z,3.49
2016-03-16T04:00:52.703Z,3.49
2016-03-16T04:01:52.675Z,3.49
2016-03-16T04:03:33.180Z,3.52
2016-03-16T04:03:52.602Z,3.54
2016-03-16T04:04:52.572Z,3.57
2016-03-16T04:05:52.544Z,3.52
2016-03-16T04:06:52.500Z,3.58
2016-03-16T04:07:52.471Z,3.54
2016-03-16T04:08:52.443Z,3.52
2016-03-16T04:09:52.414Z,3.52
2016-03-16T04:10:52.371Z,3.54
2016-03-16T04:11:52.342Z,3.65
2016-03-16T04:12:52.297Z,3.52
2016-03-16T04:13:52.269Z,3.65
2016-03-16T04:14:52.240Z,3.57
2016-03-16T04:15:52.196Z,3.54
2016-03-16T04:16:52.168Z,3.6
2016-03-16T04:17:52.139Z,3.61
2016-03-16T04:18:52.095Z,3.6
2016-03-16T04:19:52.066Z,3.53
2016-03-16T04:20:52.038Z,3.67
2016-03-16T04:21:52.009Z,3.53
2016-03-16T04:22:51.982Z,3.6
2016-03-16T04:23:51.937Z,3.6
2016-03-16T04:24:51.908Z,3.62
2016-03-16T04:25:51.895Z,3.6
2016-03-16T04:26:51.835Z,3.64
2016-03-16T04:27:51.823Z,3.61
2016-03-16T04:28:51.762Z,3.71
2016-03-16T04:29:51.734Z,3.61
2016-03-16T04:30:51.706Z,3.65
2016-03-16T04:31:51.662Z,3.71
2016-03-16T04:32:51.633Z,3.6
2016-03-16T04:33:51.464Z,3.67
2016-03-16T04:34:51.592Z,3.65
2016-03-16T04:35:51.547Z,3.61
2016-03-16T04:36:51.503Z,3.64
2016-03-16T04:37:51.489Z,3.64
2016-03-16T04:38:51.447Z,3.62
2016-03-16T04:39:51.402Z,3.67
2016-03-16T04:40:51.358Z,3.72
2016-03-16T04:41:51.329Z,3.67
2016-03-16T04:42:51.300Z,3.61
2016-03-16T04:43:51.288Z,3.62
2016-03-16T04:44:51.228Z,3.68
2016-03-16T04:45:51.199Z,3.64
2016-03-16T04:46:51.171Z,3.67
2016-03-16T04:47:51.157Z,3.68
2016-03-16T04:48:51.098Z,3.67
2016-03-16T04:49:51.069Z,3.6
2016-03-16T04:50:51.025Z,3.68
2016-03-16T04:51:50.996Z,3.61
2016-03-16T04:52:50.968Z,3.61
2016-03-16T04:53:50.939Z,3.64
2016-03-16T04:54:50.910Z,3.62
2016-03-16T04:55:50.882Z,3.61
2016-03-16T04:56:50.823Z,3.6
2016-03-16T04:57:50.809Z,3.61
2016-03-16T04:58:50.625Z,3.61
2016-03-16T04:59:50.737Z,3.57
2016-03-16T05:00:50.708Z,3.58
2016-03-16T05:01:50.664Z,3.53
2016-03-16T05:02:50.651Z,3.58
2016-03-16T05:03:50.592Z,3.53
2016-03-16T05:04:50.578Z,3.64
2016-03-16T05:05:50.550Z,3.64
2016-03-16T05:06:50.620Z,3.61
2016-03-16T05:07:50.467Z,3.65
2016-03-16T05:08:50.423Z,3.58
2016-03-16T05:09:50.395Z,3.49
2016-03-16T05:10:50.366Z,3.6
2016-03-16T05:11:50.322Z,3.6
2016-03-16T05:12:50.308Z,3.54
2016-03-16T05:13:50.124Z,3.5
2016-03-16T05:14:50.220Z,3.65
2016-03-16T05:15:50.208Z,3.58
2016-03-16T05:16:50.179Z,3.6
2016-03-16T05:17:50.135Z,3.65
2016-03-16T05:18:50.091Z,3.6
2016-03-16T05:19:50.061Z,3.6
2016-03-16T05:20:50.049Z,3.64
2016-03-16T05:21:49.989Z,3.62
2016-03-16T05:22:49.991Z,3.68
2016-03-16T05:23:49.932Z,3.61
2016-03-16T05:24:49.904Z,3.62
2016-03-16T05:25:49.860Z,3.65
2016-03-16T05:26:49.831Z,3.65
2016-03-16T05:27:49.802Z,3.68
2016-03-16T05:28:49.774Z,3.64
2016-03-16T05:29:49.573Z,3.64
2016-03-16T05:30:49.716Z,3.65
2016-03-16T05:31:49.657Z,3.64
2016-03-16T05:32:49.643Z,3.64
2016-03-16T05:33:49.599Z,3.7
2016-03-16T05:34:49.571Z,3.62
2016-03-16T05:35:49.526Z,3.67
2016-03-16T05:36:49.498Z,3.68
2016-03-16T05:37:49.470Z,3.65
2016-03-16T05:38:49.426Z,3.65
2016-03-16T05:39:49.398Z,3.64
2016-03-16T05:40:49.384Z,3.68
2016-03-16T05:41:49.325Z,3.62
2016-03-16T05:42:49.295Z,3.58
2016-03-16T05:43:49.251Z,3.62
2016-03-16T05:44:49.239Z,3.64
2016-03-16T05:45:49.210Z,3.68
2016-03-16T05:46:49.166Z,3.62
2016-03-16T05:47:49.136Z,3.62
2016-03-16T05:48:49.093Z,3.7
2016-03-16T05:49:49.080Z,3.64
2016-03-16T05:50:49.020Z,3.7
2016-03-16T05:51:48.992Z,3.62
2016-03-16T05:52:48.963Z,3.65
2016-03-16T05:53:48.935Z,3.61
2016-03-16T05:54:48.890Z,3.67
2016-03-16T05:55:48.862Z,3.67
2016-03-16T05:56:48.818Z,3.65
2016-03-16T05:57:48.789Z,3.61
2016-03-16T05:58:48.792Z,3.58
2016-03-16T05:59:48.717Z,3.58
2016-03-16T06:00:48.704Z,3.62
2016-03-16T06:01:48.660Z,3.65
2016-03-16T06:02:48.647Z,3.68
2016-03-16T06:03:48.587Z,3.67
2016-03-16T06:04:48.558Z,3.68
2016-03-16T06:05:48.529Z,3.71
2016-03-16T06:06:48.501Z,3.7
2016-03-16T06:07:48.456Z,3.72
2016-03-16T06:08:48.428Z,3.7
2016-03-16T06:09:48.384Z,3.7
2016-03-16T06:10:48.355Z,3.71
2016-03-16T06:11:48.327Z,3.7
2016-03-16T06:12:48.298Z,3.72
2016-03-16T06:13:48.254Z,3.76
2016-03-16T06:14:48.226Z,3.75
2016-03-16T06:15:48.212Z,3.7
2016-03-16T06:16:48.153Z,3.78
2016-03-16T06:17:48.155Z,3.83
2016-03-16T06:18:48.080Z,3.75
2016-03-16T06:19:48.052Z,3.71
2016-03-16T06:20:48.038Z,3.8
2016-03-16T06:21:47.994Z,3.8
2016-03-16T06:22:47.810Z,3.86
2016-03-16T06:23:47.921Z,3.88
2016-03-16T06:24:47.925Z,3.72
2016-03-16T06:25:47.864Z,3.64
2016-03-16T06:26:47.836Z,3.78
2016-03-16T06:27:47.792Z,3.71
2016-03-16T06:28:47.764Z,3.8
2016-03-16T06:29:47.718Z,3.82
2016-03-16T06:30:47.706Z,3.79
2016-03-16T06:31:47.677Z,3.78
2016-03-16T06:32:47.633Z,3.82
2016-03-16T06:33:47.590Z,3.86
2016-03-16T06:34:47.592Z,3.9
2016-03-16T06:35:47.532Z,3.97
2016-03-16T06:36:47.487Z,3.88
2016-03-16T06:37:47.444Z,4
2016-03-16T06:38:47.415Z,3.98
2016-03-16T06:39:47.433Z,4.03
2016-03-16T06:40:47.358Z,4.04
2016-03-16T06:41:47.345Z,4
2016-03-16T06:42:47.284Z,4.1
2016-03-16T06:43:47.273Z,4.04
2016-03-16T06:44:47.228Z,4.12
2016-03-16T06:45:47.215Z,4.28
2016-03-16T06:46:47.156Z,4.29
2016-03-16T06:47:47.158Z,4.33
2016-03-16T06:48:47.083Z,4.33
2016-03-16T06:49:47.069Z,4.32
2016-03-16T06:50:47.025Z,4.28
2016-03-16T06:51:47.013Z,4.28
2016-03-16T06:52:46.969Z,4.24
2016-03-16T06:53:46.940Z,4.16
2016-03-16T06:54:46.896Z,4.07
2016-03-16T06:55:46.867Z,4.18
2016-03-16T06:56:46.838Z,4.12
2016-03-16T06:57:46.794Z,4.1
2016-03-16T06:58:46.781Z,4.29
2016-03-16T06:59:46.737Z,4.33
2016-03-16T07:00:46.724Z,4.32
2016-03-16T07:01:46.680Z,4.4
2016-03-16T07:02:46.636Z,4.46
2016-03-16T07:03:46.608Z,4.46
2016-03-16T07:04:46.579Z,4.54
2016-03-16T07:05:46.535Z,4.44
2016-03-16T07:06:46.522Z,4.42
2016-03-16T07:07:46.477Z,4.34
2016-03-16T07:08:46.465Z,4.42
2016-03-16T07:09:46.420Z,4.29
2016-03-16T07:10:46.376Z,4.33
2016-03-16T07:11:46.378Z,4.34
2016-03-16T07:12:46.303Z,4.34
2016-03-16T07:13:46.290Z,4.37
2016-03-16T07:14:46.245Z,4.39
2016-03-16T07:15:46.202Z,4.33
2016-03-16T07:16:46.173Z,4.39
2016-03-16T07:17:46.161Z,4.34
2016-03-16T07:18:46.148Z,4.37
2016-03-16T07:19:46.088Z,4.39
2016-03-16T07:20:46.059Z,4.42
2016-03-16T07:21:46.014Z,4.5
2016-03-16T07:22:45.986Z,4.46
2016-03-16T07:23:45.942Z,4.42
2016-03-16T07:24:45.930Z,4.52
2016-03-16T07:25:49.730Z,4.5
2016-03-16T07:26:49.545Z,4.44
2016-03-16T07:27:49.953Z,4.43
2016-03-16T07:28:45.784Z,4.55
2016-03-16T07:29:45.755Z,4.46
2016-03-16T07:30:45.727Z,4.55
2016-03-16T07:31:45.698Z,4.54
2016-03-16T07:32:45.654Z,4.57
2016-03-16T07:33:45.626Z,4.61
2016-03-16T07:34:45.596Z,4.67
2016-03-16T07:35:45.552Z,4.62
2016-03-16T07:36:48.024Z,4.57
2016-03-16T07:37:50.246Z,4.69
2016-03-16T07:38:49.515Z,4.72
2016-03-16T07:39:45.438Z,4.94
2016-03-16T07:40:45.395Z,5.01
2016-03-16T07:41:45.381Z,4.94
2016-03-16T07:42:45.337Z,4.91
2016-03-16T07:43:45.308Z,4.91
2016-03-16T07:44:45.264Z,4.95
2016-03-16T07:45:45.251Z,4.89
2016-03-16T07:46:45.206Z,4.95
2016-03-16T07:47:45.194Z,5.01
2016-03-16T07:48:45.134Z,4.96
2016-03-16T07:49:45.122Z,5.01
2016-03-16T07:50:45.093Z,4.99
2016-03-16T07:51:45.049Z,5.01
2016-03-16T07:52:45.020Z,5.07
2016-03-16T07:53:44.975Z,5.02
2016-03-16T07:54:44.963Z,5.01
2016-03-16T07:55:44.919Z,5.05
2016-03-16T07:56:44.906Z,5.04
2016-03-16T07:57:44.847Z,4.99
2016-03-16T07:58:44.834Z,5.04
2016-03-16T07:59:44.789Z,5.02
2016-03-16T08:00:44.761Z,5.04
2016-03-16T08:01:44.716Z,5.02
2016-03-16T08:02:44.672Z,5.14
2016-03-16T08:03:44.674Z,5.2
2016-03-16T08:04:44.630Z,5.02
2016-03-16T08:05:44.587Z,5.1
2016-03-16T08:06:44.570Z,5.12
2016-03-16T08:07:44.526Z,5.12
2016-03-16T08:08:44.513Z,5.1
2016-03-16T08:09:44.484Z,5.12
2016-03-16T08:10:44.424Z,5.14
2016-03-16T08:11:44.411Z,5.17
2016-03-16T08:12:44.352Z,5.17
2016-03-16T08:13:44.338Z,5.19
2016-03-16T08:14:44.294Z,5.3
2016-03-16T08:15:44.297Z,5.34
2016-03-16T08:16:44.238Z,5.34
2016-03-16T08:17:44.224Z,5.22
2016-03-16T08:18:44.165Z,5.3
2016-03-16T08:19:44.152Z,5.35
2016-03-16T08:20:44.108Z,5.3
2016-03-16T08:21:44.079Z,5.43
2016-03-16T08:22:44.081Z,5.4
2016-03-16T08:23:44.006Z,5.53
2016-03-16T08:24:43.993Z,5.49
2016-03-16T08:25:43.949Z,5.55
2016-03-16T08:26:43.921Z,5.55
2016-03-16T08:27:43.907Z,5.56
2016-03-16T08:28:43.848Z,5.59
2016-03-16T08:29:43.820Z,5.67
2016-03-16T08:30:43.806Z,5.73
2016-03-16T08:31:43.762Z,5.85
2016-03-16T08:32:43.734Z,5.92
2016-03-16T08:33:43.705Z,5.85
2016-03-16T08:34:43.676Z,5.82
2016-03-16T08:35:43.648Z,5.89
2016-03-16T08:36:43.603Z,6.03
2016-03-16T08:37:43.591Z,6.06
2016-03-16T08:38:43.547Z,6.01
2016-03-16T08:39:43.517Z,6
2016-03-16T08:40:43.474Z,6.03
2016-03-16T08:41:43.444Z,6.16
2016-03-16T08:42:43.416Z,6.29
2016-03-16T08:43:43.388Z,6.44
2016-03-16T08:44:43.360Z,6.63
2016-03-16T08:45:43.346Z,6.65
2016-03-16T08:46:43.287Z,6.59
2016-03-16T08:47:43.274Z,6.59
2016-03-16T08:48:43.230Z,6.62
2016-03-16T08:49:43.216Z,6.62
2016-03-16T08:50:43.188Z,6.54
2016-03-16T08:51:43.160Z,6.71
2016-03-16T08:52:43.115Z,6.69
2016-03-16T08:53:43.102Z,6.8
2016-03-16T08:54:43.058Z,6.66
2016-03-16T08:55:43.030Z,6.73
2016-03-16T08:56:43.001Z,6.68
2016-03-16T08:57:42.988Z,6.79
2016-03-16T08:58:42.944Z,6.8
2016-03-16T08:59:42.900Z,6.87
2016-03-16T09:00:42.871Z,6.98
2016-03-16T09:01:42.843Z,7.05
2016-03-16T09:02:42.814Z,6.99
2016-03-16T09:03:42.786Z,6.91
2016-03-16T09:04:42.756Z,7.01
2016-03-16T09:05:42.729Z,6.89
2016-03-16T09:06:42.736Z,7.02
2016-03-16T09:07:42.661Z,6.87
2016-03-16T09:08:42.630Z,6.76
2016-03-16T09:09:42.650Z,6.76
2016-03-16T09:10:42.572Z,6.76
2016-03-16T09:11:42.559Z,6.69
2016-03-16T09:12:42.515Z,6.63
2016-03-16T09:13:42.486Z,6.62
2016-03-16T09:14:42.489Z,6.56
2016-03-16T09:15:42.429Z,6.58
2016-03-16T09:16:42.401Z,6.72
2016-03-16T09:17:42.372Z,6.68
2016-03-16T09:18:42.343Z,6.76
2016-03-16T09:19:42.299Z,6.8
2016-03-16T09:20:42.304Z,6.84
2016-03-16T09:21:42.245Z,6.89
2016-03-16T09:22:42.232Z,6.95
2016-03-16T09:23:42.188Z,6.87
2016-03-16T09:24:42.160Z,6.94
2016-03-16T09:25:42.226Z,6.9
2016-03-16T09:26:42.111Z,6.77
2016-03-16T09:27:41.919Z,6.77
2016-03-16T09:28:42.033Z,6.69
2016-03-16T09:29:42.408Z,6.65
2016-03-16T09:30:43.732Z,6.59
2016-03-16T09:31:41.871Z,6.63
2016-03-16T09:32:41.837Z,6.59
2016-03-16T09:33:41.788Z,6.56
2016-03-16T09:34:41.771Z,6.58
2016-03-16T09:35:41.723Z,6.62
2016-03-16T09:36:41.693Z,6.56
2016-03-16T09:37:41.661Z,6.69
2016-03-16T09:38:41.662Z,6.69
2016-03-16T09:39:41.600Z,6.73
2016-03-16T09:40:41.570Z,6.73
2016-03-16T09:41:41.541Z,6.76
2016-03-16T09:42:41.528Z,6.73
2016-03-16T09:43:41.499Z,6.66
2016-03-16T09:44:41.453Z,6.68
2016-03-16T09:45:41.471Z,6.68
2016-03-16T09:46:41.381Z,6.66
2016-03-16T09:47:41.367Z,6.72
2016-03-16T09:48:41.323Z,6.72
2016-03-16T09:49:41.310Z,6.77
2016-03-16T09:50:41.250Z,6.89
2016-03-16T09:51:41.253Z,6.99
2016-03-16T09:52:41.192Z,7.13
2016-03-16T09:53:41.180Z,7.17
2016-03-16T09:54:41.152Z,7.4
2016-03-16T09:55:41.122Z,7.47
2016-03-16T09:56:41.079Z,7.58
2016-03-16T09:57:41.065Z,7.69
2016-03-16T09:58:41.038Z,7.6
2016-03-16T09:59:40.993Z,7.56
2016-03-16T10:00:40.964Z,7.58
2016-03-16T10:01:40.935Z,7.59
2016-03-16T10:02:40.939Z,7.37
2016-03-16T10:03:40.863Z,7.26
2016-03-16T10:04:40.865Z,7.19
2016-03-16T10:05:40.806Z,7.27
2016-03-16T10:06:40.793Z,7.27
2016-03-16T10:07:40.748Z,7.22
2016-03-16T10:08:40.752Z,7.12
2016-03-16T10:09:40.707Z,6.97
2016-03-16T10:10:40.678Z,7.01
2016-03-16T10:11:40.635Z,6.9
2016-03-16T10:12:40.606Z,6.98
2016-03-16T10:13:40.593Z,6.77
2016-03-16T10:14:40.564Z,6.91
2016-03-16T10:15:40.521Z,7.01
2016-03-16T10:16:40.507Z,6.95
2016-03-16T10:17:40.464Z,7.07
2016-03-16T10:18:40.435Z,7.24
2016-03-16T10:19:40.422Z,7.32
2016-03-16T10:20:40.378Z,7.44
2016-03-16T10:21:40.364Z,7.58
2016-03-16T10:22:40.321Z,7.55
2016-03-16T10:23:40.308Z,7.53
2016-03-16T10:24:40.264Z,7.56
2016-03-16T10:25:40.250Z,7.5
2016-03-16T10:26:40.206Z,7.59
2016-03-16T10:27:40.178Z,7.55
2016-03-16T10:28:40.133Z,7.4
2016-03-16T10:29:40.105Z,7.58
2016-03-16T10:30:40.092Z,7.6
2016-03-16T10:31:40.063Z,7.62
2016-03-16T10:32:40.019Z,7.69
2016-03-16T10:33:40.022Z,7.59
2016-03-16T10:34:39.977Z,7.53
2016-03-16T10:35:39.933Z,7.56
2016-03-16T10:36:39.905Z,7.62
2016-03-16T10:37:39.877Z,7.75
2016-03-16T10:38:39.848Z,7.9
2016-03-16T10:39:39.835Z,7.93
2016-03-16T10:40:39.790Z,7.96
2016-03-16T10:41:39.762Z,7.75
2016-03-16T10:42:39.749Z,7.6
2016-03-16T10:43:39.689Z,7.5
2016-03-16T10:44:39.676Z,7.29
2016-03-16T10:45:39.648Z,7.37
2016-03-16T10:46:39.619Z,7.27
2016-03-16T10:47:39.575Z,7.38
2016-03-16T10:48:39.578Z,7.45
2016-03-16T10:49:39.534Z,7.47
2016-03-16T10:50:39.520Z,7.49
2016-03-16T10:51:39.462Z,7.38
2016-03-16T10:52:39.448Z,7.38
2016-03-16T10:53:39.404Z,7.5
2016-03-16T10:54:39.375Z,7.35
2016-03-16T10:55:39.347Z,7.34
2016-03-16T10:56:39.319Z,7.45
2016-03-16T10:57:39.306Z,7.38
2016-03-16T10:58:39.261Z,7.26
2016-03-16T10:59:39.248Z,7.26
2016-03-16T11:00:39.188Z,7.24
2016-03-16T11:01:39.176Z,7.19
2016-03-16T11:02:39.147Z,7.23
2016-03-16T11:03:39.119Z,7.19
2016-03-16T11:04:39.091Z,7.15
2016-03-16T11:05:39.061Z,6.9
2016-03-16T11:06:39.017Z,6.91
2016-03-16T11:07:38.988Z,6.89
2016-03-16T11:08:38.976Z,6.84
2016-03-16T11:09:38.947Z,6.77
2016-03-16T11:10:38.919Z,6.81
2016-03-16T11:11:38.874Z,6.77
2016-03-16T11:12:38.862Z,6.79
2016-03-16T11:13:38.849Z,6.79
2016-03-16T11:14:38.788Z,6.89
2016-03-16T11:15:38.760Z,6.91
2016-03-16T11:16:38.732Z,6.98
2016-03-16T11:17:38.704Z,6.99
2016-03-16T11:18:38.674Z,7.13
2016-03-16T11:19:38.646Z,7.23
2016-03-16T11:20:38.602Z,7.34
2016-03-16T11:21:38.573Z,7.44
2016-03-16T11:22:38.545Z,7.49
2016-03-16T11:23:38.531Z,7.58
2016-03-16T11:24:38.488Z,7.47
2016-03-16T11:25:38.475Z,7.42
2016-03-16T11:26:38.430Z,7.55
2016-03-16T11:27:38.402Z,7.56
2016-03-16T11:28:38.358Z,7.58
2016-03-16T11:29:38.345Z,7.62
2016-03-16T11:30:38.317Z,7.66
2016-03-16T11:31:38.304Z,7.63
2016-03-16T11:32:38.259Z,7.56
2016-03-16T11:33:38.231Z,7.47
2016-03-16T11:34:38.186Z,7.56
2016-03-16T11:35:38.173Z,7.41
2016-03-16T11:36:38.145Z,7.55
2016-03-16T11:37:38.100Z,7.47
2016-03-16T11:38:38.072Z,7.55
2016-03-16T11:39:38.059Z,7.56
2016-03-16T11:40:38.031Z,7.55
2016-03-16T11:41:37.986Z,7.55
2016-03-16T11:42:37.973Z,7.58
2016-03-16T11:43:37.946Z,7.56
2016-03-16T11:44:37.901Z,7.58
2016-03-16T11:45:37.888Z,7.44
2016-03-16T11:46:37.859Z,7.44
2016-03-16T11:47:37.815Z,7.4
2016-03-16T11:48:37.787Z,7.34
2016-03-16T11:49:37.758Z,7.42
2016-03-16T11:50:37.729Z,7.4
2016-03-16T11:51:37.701Z,7.32
2016-03-16T11:52:37.673Z,7.4
2016-03-16T11:53:37.659Z,7.53
2016-03-16T11:54:37.615Z,7.55
2016-03-16T11:55:37.586Z,7.63
2016-03-16T11:56:37.543Z,7.55
2016-03-16T11:57:37.529Z,7.56
2016-03-16T11:58:37.501Z,7.58
2016-03-16T11:59:37.472Z,7.6
2016-03-16T12:00:37.444Z,7.66
2016-03-16T12:01:37.415Z,7.55
2016-03-16T12:02:37.371Z,7.55
2016-03-16T12:03:37.358Z,7.62
2016-03-16T12:04:37.330Z,7.69
2016-03-16T12:05:37.301Z,7.52
2016-03-16T12:06:37.257Z,7.69
2016-03-16T12:07:37.228Z,7.67
2016-03-16T12:08:37.216Z,7.66
2016-03-16T12:09:37.171Z,7.71
2016-03-16T12:10:37.143Z,7.75
2016-03-16T12:11:37.130Z,7.84
2016-03-16T12:12:37.101Z,7.78
2016-03-16T12:13:37.057Z,7.78
2016-03-16T12:14:37.029Z,7.82
2016-03-16T12:15:36.999Z,7.92
2016-03-16T12:16:36.971Z,8.08
2016-03-16T12:17:36.974Z,7.96
2016-03-16T12:18:36.915Z,8.07
2016-03-16T12:19:36.901Z,8.1
2016-03-16T12:20:36.857Z,8.1
2016-03-16T12:21:36.829Z,8.15
2016-03-16T12:22:36.800Z,8.07
2016-03-16T12:23:36.756Z,8.07
2016-03-16T12:24:36.742Z,8.14
2016-03-16T12:25:36.714Z,8.02
2016-03-16T12:26:36.686Z,8.1
2016-03-16T12:27:36.657Z,8.12
2016-03-16T12:28:36.628Z,8.18
2016-03-16T12:29:36.600Z,8.11
2016-03-16T12:30:36.572Z,8.07
2016-03-16T12:31:36.528Z,7.99
2016-03-16T12:32:36.514Z,7.97
2016-03-16T12:33:36.517Z,7.92
2016-03-16T12:34:36.458Z,7.97
2016-03-16T12:35:36.444Z,7.89
2016-03-16T12:36:36.416Z,8.1
2016-03-16T12:37:36.371Z,8.1
2016-03-16T12:38:36.344Z,8.17
2016-03-16T12:39:36.314Z,8.15
2016-03-16T12:40:36.286Z,8.03
2016-03-16T12:41:36.257Z,8.14
2016-03-16T12:42:36.229Z,8.14
2016-03-16T12:43:36.200Z,8.15
2016-03-16T12:44:36.172Z,8.02
2016-03-16T12:45:36.127Z,8.12
2016-03-16T12:46:36.129Z,8.12
2016-03-16T12:47:36.102Z,8.25
2016-03-16T12:48:36.057Z,8.35
2016-03-16T12:49:36.044Z,8.4
2016-03-16T12:50:35.984Z,8.55
2016-03-16T12:51:35.988Z,8.48
2016-03-16T12:52:35.959Z,8.54
2016-03-16T12:53:35.930Z,8.57
2016-03-16T12:54:35.886Z,8.57
2016-03-16T12:55:35.873Z,8.44
2016-03-16T12:56:35.829Z,8.3
2016-03-16T12:57:35.785Z,8.15
2016-03-16T12:58:35.787Z,8.07
2016-03-16T12:59:35.743Z,8.14
2016-03-16T13:00:35.715Z,8.07
2016-03-16T13:01:35.687Z,8.03
2016-03-16T13:02:35.642Z,8.02
2016-03-16T13:03:35.644Z,7.97
2016-03-16T13:04:35.617Z,8.14
2016-03-16T13:05:35.587Z,8.02
2016-03-16T13:06:35.544Z,8.12
2016-03-16T13:07:35.514Z,8.11
2016-03-16T13:08:35.502Z,8.14
2016-03-16T13:09:35.458Z,8.12
2016-03-16T13:10:35.429Z,8.14
2016-03-16T13:11:35.400Z,8.21
2016-03-16T13:12:35.371Z,8.11
2016-03-16T13:13:35.344Z,8.07
2016-03-16T13:14:35.330Z,7.96
2016-03-16T13:15:35.286Z,7.93
2016-03-16T13:16:35.273Z,7.97
2016-03-16T13:17:35.230Z,7.99
2016-03-16T13:18:35.216Z,8.14
2016-03-16T13:19:35.171Z,7.99
2016-03-16T13:20:35.143Z,8.12